sensor_id;sensor_type;location;lat;lon;timestamp;temperature;humidity
64501;DHT22;50874;24.150;-110.320;2022-10-31T00:00:30;31.50;89.60
64501;DHT22;50874;24.150;-110.320;2022-10-31T00:02:57;31.40;89.50
64501;DHT22;50874;24.150;-110.320;2022-10-31T00:05:23;31.30;90.20
64501;DHT22;50874;24.150;-110.320;2022-10-31T00:07:52;31.20;89.90
64501;DHT22;50874;24.150;-110.320;2022-10-31T00:10:19;30.90;88.60
64501;DHT22;50874;24.150;-110.320;2022-10-31T00:12:45;30.80;87.90
64501;DHT22;50874;24.150;-110.320;2022-10-31T00:15:12;30.70;80.70
64501;DHT22;50874;24.150;-110.320;2022-10-31T00:17:38;30.40;72.70
64501;DHT22;50874;24.150;-110.320;2022-10-31T00:20:05;30.30;71.70
64501;DHT22;50874;24.150;-110.320;2022-10-31T00:22:32;30.30;71.50
64501;DHT22;50874;24.150;-110.320;2022-10-31T00:24:58;30.20;70.80
64501;DHT22;50874;24.150;-110.320;2022-10-31T00:27:24;30.10;71.00
64501;DHT22;50874;24.150;-110.320;2022-10-31T00:29:51;30.10;70.70
64501;DHT22;50874;24.150;-110.320;2022-10-31T00:32:17;29.90;70.40
64501;DHT22;50874;24.150;-110.320;2022-10-31T00:34:44;29.80;70.60
64501;DHT22;50874;24.150;-110.320;2022-10-31T00:37:10;29.70;70.70
64501;DHT22;50874;24.150;-110.320;2022-10-31T00:39:37;29.60;70.80
64501;DHT22;50874;24.150;-110.320;2022-10-31T00:42:03;29.50;71.00
64501;DHT22;50874;24.150;-110.320;2022-10-31T00:44:30;29.40;70.80
64501;DHT22;50874;24.150;-110.320;2022-10-31T00:46:56;29.40;71.00
64501;DHT22;50874;24.150;-110.320;2022-10-31T00:49:22;29.30;70.90
64501;DHT22;50874;24.150;-110.320;2022-10-31T00:51:49;29.30;70.90
64501;DHT22;50874;24.150;-110.320;2022-10-31T00:54:15;29.20;71.20
64501;DHT22;50874;24.150;-110.320;2022-10-31T00:56:42;29.00;71.30
64501;DHT22;50874;24.150;-110.320;2022-10-31T00:59:08;29.00;71.60
64501;DHT22;50874;24.150;-110.320;2022-10-31T01:01:35;28.90;71.70
64501;DHT22;50874;24.150;-110.320;2022-10-31T01:04:01;28.80;71.90
64501;DHT22;50874;24.150;-110.320;2022-10-31T01:06:27;28.80;72.00
64501;DHT22;50874;24.150;-110.320;2022-10-31T01:08:54;28.70;72.10
64501;DHT22;50874;24.150;-110.320;2022-10-31T01:11:22;28.60;72.40
64501;DHT22;50874;24.150;-110.320;2022-10-31T01:13:53;28.50;72.70
64501;DHT22;50874;24.150;-110.320;2022-10-31T01:16:22;28.30;73.10
64501;DHT22;50874;24.150;-110.320;2022-10-31T01:18:48;28.30;73.50
64501;DHT22;50874;24.150;-110.320;2022-10-31T01:21:19;28.10;73.70
64501;DHT22;50874;24.150;-110.320;2022-10-31T01:23:46;28.00;74.10
64501;DHT22;50874;24.150;-110.320;2022-10-31T01:26:18;28.00;74.80
64501;DHT22;50874;24.150;-110.320;2022-10-31T01:28:50;27.90;75.20
64501;DHT22;50874;24.150;-110.320;2022-10-31T01:31:18;27.80;76.00
64501;DHT22;50874;24.150;-110.320;2022-10-31T01:33:45;27.70;76.80
64501;DHT22;50874;24.150;-110.320;2022-10-31T01:36:15;27.60;77.60
64501;DHT22;50874;24.150;-110.320;2022-10-31T01:38:42;27.40;78.40
64501;DHT22;50874;24.150;-110.320;2022-10-31T01:41:10;27.20;79.30
64501;DHT22;50874;24.150;-110.320;2022-10-31T01:46:35;27.10;80.40
64501;DHT22;50874;24.150;-110.320;2022-10-31T01:49:05;27.10;80.80
64501;DHT22;50874;24.150;-110.320;2022-10-31T01:51:40;27.10;81.20
64501;DHT22;50874;24.150;-110.320;2022-10-31T01:54:11;27.00;81.70
64501;DHT22;50874;24.150;-110.320;2022-10-31T01:56:40;26.90;82.80
64501;DHT22;50874;24.150;-110.320;2022-10-31T01:59:11;26.70;84.00
64501;DHT22;50874;24.150;-110.320;2022-10-31T02:01:38;26.60;84.90
64501;DHT22;50874;24.150;-110.320;2022-10-31T02:04:05;26.40;86.00
64501;DHT22;50874;24.150;-110.320;2022-10-31T02:06:53;26.40;87.20
64501;DHT22;50874;24.150;-110.320;2022-10-31T02:09:22;26.30;88.40
64501;DHT22;50874;24.150;-110.320;2022-10-31T02:11:52;26.20;88.70
64501;DHT22;50874;24.150;-110.320;2022-10-31T02:14:22;26.10;90.00
64501;DHT22;50874;24.150;-110.320;2022-10-31T02:16:48;26.10;89.80
64501;DHT22;50874;24.150;-110.320;2022-10-31T02:19:54;26.10;89.60
64501;DHT22;50874;24.150;-110.320;2022-10-31T02:23:18;26.00;89.50
64501;DHT22;50874;24.150;-110.320;2022-10-31T02:28:30;25.80;90.60
64501;DHT22;50874;24.150;-110.320;2022-10-31T02:37:01;25.50;92.00
64501;DHT22;50874;24.150;-110.320;2022-10-31T02:39:34;25.40;92.70
64501;DHT22;50874;24.150;-110.320;2022-10-31T02:47:27;25.10;93.50
64501;DHT22;50874;24.150;-110.320;2022-10-31T02:49:59;25.10;93.50
64501;DHT22;50874;24.150;-110.320;2022-10-31T02:52:28;25.00;93.70
64501;DHT22;50874;24.150;-110.320;2022-10-31T02:54:54;24.90;94.10
64501;DHT22;50874;24.150;-110.320;2022-10-31T02:57:26;24.80;94.60
64501;DHT22;50874;24.150;-110.320;2022-10-31T02:59:58;24.70;94.90
64501;DHT22;50874;24.150;-110.320;2022-10-31T03:06:00;24.60;95.40
64501;DHT22;50874;24.150;-110.320;2022-10-31T03:08:35;24.50;95.30
64501;DHT22;50874;24.150;-110.320;2022-10-31T03:11:07;24.40;95.30
64501;DHT22;50874;24.150;-110.320;2022-10-31T03:13:39;24.40;95.20
64501;DHT22;50874;24.150;-110.320;2022-10-31T03:19:03;24.30;95.00
64501;DHT22;50874;24.150;-110.320;2022-10-31T03:21:46;24.30;95.20
64501;DHT22;50874;24.150;-110.320;2022-10-31T03:24:15;24.20;95.00
64501;DHT22;50874;24.150;-110.320;2022-10-31T03:26:44;24.20;95.50
64501;DHT22;50874;24.150;-110.320;2022-10-31T03:29:15;24.20;95.70
64501;DHT22;50874;24.150;-110.320;2022-10-31T03:32:08;24.10;95.70
64501;DHT22;50874;24.150;-110.320;2022-10-31T03:34:42;24.10;95.80
64501;DHT22;50874;24.150;-110.320;2022-10-31T03:37:10;24.00;96.40
64501;DHT22;50874;24.150;-110.320;2022-10-31T03:39:39;24.00;97.00
64501;DHT22;50874;24.150;-110.320;2022-10-31T03:42:21;23.90;97.40
64501;DHT22;50874;24.150;-110.320;2022-10-31T03:47:29;23.70;98.50
64501;DHT22;50874;24.150;-110.320;2022-10-31T03:49:56;23.70;99.00
64501;DHT22;50874;24.150;-110.320;2022-10-31T03:55:21;23.60;99.90
64501;DHT22;50874;24.150;-110.320;2022-10-31T04:00:21;23.50;99.90
64501;DHT22;50874;24.150;-110.320;2022-10-31T04:03:12;23.50;99.90
64501;DHT22;50874;24.150;-110.320;2022-10-31T04:05:41;23.40;99.90
64501;DHT22;50874;24.150;-110.320;2022-10-31T04:08:12;23.40;99.90
64501;DHT22;50874;24.150;-110.320;2022-10-31T04:10:41;23.40;99.90
64501;DHT22;50874;24.150;-110.320;2022-10-31T04:13:14;23.40;99.90
64501;DHT22;50874;24.150;-110.320;2022-10-31T04:15:41;23.30;99.90
64501;DHT22;50874;24.150;-110.320;2022-10-31T04:18:08;23.20;99.90
64501;DHT22;50874;24.150;-110.320;2022-10-31T04:20:42;23.20;99.90
64501;DHT22;50874;24.150;-110.320;2022-10-31T04:23:25;23.10;99.90
64501;DHT22;50874;24.150;-110.320;2022-10-31T04:25:51;23.10;99.90
64501;DHT22;50874;24.150;-110.320;2022-10-31T04:28:18;23.10;99.90
64501;DHT22;50874;24.150;-110.320;2022-10-31T04:30:45;23.10;99.90
64501;DHT22;50874;24.150;-110.320;2022-10-31T04:33:11;23.00;99.90
64501;DHT22;50874;24.150;-110.320;2022-10-31T04:35:37;23.00;99.90
64501;DHT22;50874;24.150;-110.320;2022-10-31T04:38:04;23.00;99.90
64501;DHT22;50874;24.150;-110.320;2022-10-31T04:40:31;22.90;99.90
64501;DHT22;50874;24.150;-110.320;2022-10-31T04:42:57;22.90;99.90
64501;DHT22;50874;24.150;-110.320;2022-10-31T04:45:24;22.80;99.90
64501;DHT22;50874;24.150;-110.320;2022-10-31T04:47:50;22.80;99.90
64501;DHT22;50874;24.150;-110.320;2022-10-31T04:50:16;22.70;99.90
64501;DHT22;50874;24.150;-110.320;2022-10-31T04:52:44;22.70;99.90
64501;DHT22;50874;24.150;-110.320;2022-10-31T04:55:12;22.70;99.90
64501;DHT22;50874;24.150;-110.320;2022-10-31T05:00:10;22.60;99.90
64501;DHT22;50874;24.150;-110.320;2022-10-31T05:02:56;22.60;99.90
64501;DHT22;50874;24.150;-110.320;2022-10-31T05:05:25;22.50;99.90
64501;DHT22;50874;24.150;-110.320;2022-10-31T05:07:52;22.40;99.90
64501;DHT22;50874;24.150;-110.320;2022-10-31T05:10:21;22.30;99.90
64501;DHT22;50874;24.150;-110.320;2022-10-31T05:12:48;22.30;99.90
64501;DHT22;50874;24.150;-110.320;2022-10-31T05:15:16;22.30;99.90
64501;DHT22;50874;24.150;-110.320;2022-10-31T05:17:43;22.30;99.90
64501;DHT22;50874;24.150;-110.320;2022-10-31T05:20:11;22.30;99.90
64501;DHT22;50874;24.150;-110.320;2022-10-31T05:22:41;22.30;99.90
64501;DHT22;50874;24.150;-110.320;2022-10-31T05:25:08;22.20;99.90
64501;DHT22;50874;24.150;-110.320;2022-10-31T05:27:34;22.20;99.90
64501;DHT22;50874;24.150;-110.320;2022-10-31T05:30:01;22.20;99.90
64501;DHT22;50874;24.150;-110.320;2022-10-31T05:32:27;22.20;99.90
64501;DHT22;50874;24.150;-110.320;2022-10-31T05:34:55;22.10;99.90
64501;DHT22;50874;24.150;-110.320;2022-10-31T05:37:21;22.10;99.90
64501;DHT22;50874;24.150;-110.320;2022-10-31T05:39:48;22.00;99.90
64501;DHT22;50874;24.150;-110.320;2022-10-31T05:42:14;22.00;99.90
64501;DHT22;50874;24.150;-110.320;2022-10-31T05:44:41;22.00;99.90
64501;DHT22;50874;24.150;-110.320;2022-10-31T05:47:07;21.90;99.90
64501;DHT22;50874;24.150;-110.320;2022-10-31T05:49:34;21.90;99.90
64501;DHT22;50874;24.150;-110.320;2022-10-31T05:52:00;21.90;99.90
64501;DHT22;50874;24.150;-110.320;2022-10-31T05:54:26;21.90;99.90
64501;DHT22;50874;24.150;-110.320;2022-10-31T05:56:53;21.80;99.90
64501;DHT22;50874;24.150;-110.320;2022-10-31T05:59:19;21.80;99.90
64501;DHT22;50874;24.150;-110.320;2022-10-31T06:01:46;21.80;99.90
64501;DHT22;50874;24.150;-110.320;2022-10-31T06:04:12;21.70;99.90
64501;DHT22;50874;24.150;-110.320;2022-10-31T06:06:38;21.80;99.90
64501;DHT22;50874;24.150;-110.320;2022-10-31T06:09:05;21.70;99.90
64501;DHT22;50874;24.150;-110.320;2022-10-31T06:11:31;21.70;99.90
64501;DHT22;50874;24.150;-110.320;2022-10-31T06:13:57;21.70;99.90
64501;DHT22;50874;24.150;-110.320;2022-10-31T06:16:24;21.70;99.90
64501;DHT22;50874;24.150;-110.320;2022-10-31T06:18:50;21.70;99.90
64501;DHT22;50874;24.150;-110.320;2022-10-31T06:21:17;21.60;99.90
64501;DHT22;50874;24.150;-110.320;2022-10-31T06:23:43;21.70;99.90
64501;DHT22;50874;24.150;-110.320;2022-10-31T06:26:10;21.60;99.90
64501;DHT22;50874;24.150;-110.320;2022-10-31T06:28:36;21.60;99.90
64501;DHT22;50874;24.150;-110.320;2022-10-31T06:31:03;21.60;99.90
64501;DHT22;50874;24.150;-110.320;2022-10-31T06:33:29;21.60;99.90
64501;DHT22;50874;24.150;-110.320;2022-10-31T06:35:56;21.60;99.90
64501;DHT22;50874;24.150;-110.320;2022-10-31T06:38:22;21.60;99.90
64501;DHT22;50874;24.150;-110.320;2022-10-31T06:40:49;21.60;99.90
64501;DHT22;50874;24.150;-110.320;2022-10-31T06:43:15;21.60;99.90
64501;DHT22;50874;24.150;-110.320;2022-10-31T06:45:42;21.60;99.90
64501;DHT22;50874;24.150;-110.320;2022-10-31T06:48:08;21.50;99.90
64501;DHT22;50874;24.150;-110.320;2022-10-31T06:50:34;21.50;99.90
64501;DHT22;50874;24.150;-110.320;2022-10-31T06:53:01;21.60;99.90
64501;DHT22;50874;24.150;-110.320;2022-10-31T06:55:27;21.50;99.90
64501;DHT22;50874;24.150;-110.320;2022-10-31T06:57:59;21.50;99.90
64501;DHT22;50874;24.150;-110.320;2022-10-31T07:00:27;21.50;99.90
64501;DHT22;50874;24.150;-110.320;2022-10-31T07:03:01;21.50;99.90
64501;DHT22;50874;24.150;-110.320;2022-10-31T07:05:27;21.50;99.90
64501;DHT22;50874;24.150;-110.320;2022-10-31T07:07:55;21.50;99.90
64501;DHT22;50874;24.150;-110.320;2022-10-31T07:10:24;21.40;99.90
64501;DHT22;50874;24.150;-110.320;2022-10-31T07:12:58;21.50;99.90
64501;DHT22;50874;24.150;-110.320;2022-10-31T07:15:27;21.50;99.90
64501;DHT22;50874;24.150;-110.320;2022-10-31T07:17:53;21.50;99.90
64501;DHT22;50874;24.150;-110.320;2022-10-31T07:20:20;21.40;99.90
64501;DHT22;50874;24.150;-110.320;2022-10-31T07:22:46;21.40;99.90
64501;DHT22;50874;24.150;-110.320;2022-10-31T07:25:13;21.50;99.90
64501;DHT22;50874;24.150;-110.320;2022-10-31T07:27:40;21.40;99.90
64501;DHT22;50874;24.150;-110.320;2022-10-31T07:30:09;21.40;99.90
64501;DHT22;50874;24.150;-110.320;2022-10-31T07:32:44;21.40;99.90
64501;DHT22;50874;24.150;-110.320;2022-10-31T07:35:13;21.40;99.90
64501;DHT22;50874;24.150;-110.320;2022-10-31T07:37:40;21.40;99.90
64501;DHT22;50874;24.150;-110.320;2022-10-31T07:40:08;21.40;99.90
64501;DHT22;50874;24.150;-110.320;2022-10-31T07:42:38;21.40;99.90
64501;DHT22;50874;24.150;-110.320;2022-10-31T07:45:08;21.40;99.90
64501;DHT22;50874;24.150;-110.320;2022-10-31T07:50:14;21.30;99.90
64501;DHT22;50874;24.150;-110.320;2022-10-31T07:52:40;21.40;99.90
64501;DHT22;50874;24.150;-110.320;2022-10-31T07:55:08;21.30;99.90
64501;DHT22;50874;24.150;-110.320;2022-10-31T07:57:35;21.30;99.90
64501;DHT22;50874;24.150;-110.320;2022-10-31T08:00:06;21.30;99.90
64501;DHT22;50874;24.150;-110.320;2022-10-31T08:02:33;21.30;99.90
64501;DHT22;50874;24.150;-110.320;2022-10-31T08:05:00;21.30;99.90
64501;DHT22;50874;24.150;-110.320;2022-10-31T08:07:28;21.30;99.90
64501;DHT22;50874;24.150;-110.320;2022-10-31T08:09:55;21.20;99.90
64501;DHT22;50874;24.150;-110.320;2022-10-31T08:12:22;21.00;99.90
64501;DHT22;50874;24.150;-110.320;2022-10-31T08:14:48;20.90;99.90
64501;DHT22;50874;24.150;-110.320;2022-10-31T08:17:16;20.80;99.90
64501;DHT22;50874;24.150;-110.320;2022-10-31T08:19:42;20.80;99.90
64501;DHT22;50874;24.150;-110.320;2022-10-31T08:22:08;20.70;99.90
64501;DHT22;50874;24.150;-110.320;2022-10-31T08:24:35;20.60;99.90
64501;DHT22;50874;24.150;-110.320;2022-10-31T08:27:01;20.40;99.90
64501;DHT22;50874;24.150;-110.320;2022-10-31T08:29:28;20.30;99.90
64501;DHT22;50874;24.150;-110.320;2022-10-31T08:31:54;20.30;99.90
64501;DHT22;50874;24.150;-110.320;2022-10-31T08:34:20;20.20;99.90
64501;DHT22;50874;24.150;-110.320;2022-10-31T08:36:47;20.10;99.90
64501;DHT22;50874;24.150;-110.320;2022-10-31T08:39:13;20.10;99.90
64501;DHT22;50874;24.150;-110.320;2022-10-31T08:41:40;20.00;99.90
64501;DHT22;50874;24.150;-110.320;2022-10-31T08:44:06;20.00;99.90
64501;DHT22;50874;24.150;-110.320;2022-10-31T08:46:33;20.00;99.90
64501;DHT22;50874;24.150;-110.320;2022-10-31T08:49:00;20.00;99.90
64501;DHT22;50874;24.150;-110.320;2022-10-31T08:51:26;19.90;99.90
64501;DHT22;50874;24.150;-110.320;2022-10-31T08:53:53;19.90;99.90
64501;DHT22;50874;24.150;-110.320;2022-10-31T08:56:19;19.90;99.90
64501;DHT22;50874;24.150;-110.320;2022-10-31T08:58:46;19.90;99.90
64501;DHT22;50874;24.150;-110.320;2022-10-31T09:01:12;19.90;99.90
64501;DHT22;50874;24.150;-110.320;2022-10-31T09:03:38;19.90;99.90
64501;DHT22;50874;24.150;-110.320;2022-10-31T09:06:05;19.90;99.90
64501;DHT22;50874;24.150;-110.320;2022-10-31T09:08:35;19.90;99.90
64501;DHT22;50874;24.150;-110.320;2022-10-31T09:11:02;19.90;99.90
64501;DHT22;50874;24.150;-110.320;2022-10-31T09:13:28;19.90;99.90
64501;DHT22;50874;24.150;-110.320;2022-10-31T09:15:56;19.90;99.90
64501;DHT22;50874;24.150;-110.320;2022-10-31T09:18:25;19.90;99.90
64501;DHT22;50874;24.150;-110.320;2022-10-31T09:20:54;20.00;99.90
64501;DHT22;50874;24.150;-110.320;2022-10-31T09:23:22;20.10;99.90
64501;DHT22;50874;24.150;-110.320;2022-10-31T09:25:50;20.20;99.90
64501;DHT22;50874;24.150;-110.320;2022-10-31T09:28:19;20.30;99.90
64501;DHT22;50874;24.150;-110.320;2022-10-31T09:30:47;20.40;99.90
64501;DHT22;50874;24.150;-110.320;2022-10-31T09:33:14;20.40;99.90
64501;DHT22;50874;24.150;-110.320;2022-10-31T09:35:41;20.40;99.90
64501;DHT22;50874;24.150;-110.320;2022-10-31T09:38:16;20.50;99.90
64501;DHT22;50874;24.150;-110.320;2022-10-31T09:40:52;20.50;99.90
64501;DHT22;50874;24.150;-110.320;2022-10-31T09:43:50;20.40;99.90
64501;DHT22;50874;24.150;-110.320;2022-10-31T09:49:35;20.40;99.90
64501;DHT22;50874;24.150;-110.320;2022-10-31T09:52:33;20.40;99.90
64501;DHT22;50874;24.150;-110.320;2022-10-31T09:55:39;20.30;99.90
64501;DHT22;50874;24.150;-110.320;2022-10-31T09:58:20;20.30;99.90
64501;DHT22;50874;24.150;-110.320;2022-10-31T10:00:48;20.30;99.90
64501;DHT22;50874;24.150;-110.320;2022-10-31T10:08:46;20.30;99.90
64501;DHT22;50874;24.150;-110.320;2022-10-31T10:15:07;20.30;99.90
64501;DHT22;50874;24.150;-110.320;2022-10-31T10:17:21;20.20;99.90
64501;DHT22;50874;24.150;-110.320;2022-10-31T10:20:14;20.30;99.90
64501;DHT22;50874;24.150;-110.320;2022-10-31T10:26:05;20.20;99.90
64501;DHT22;50874;24.150;-110.320;2022-10-31T10:28:38;20.30;99.90
64501;DHT22;50874;24.150;-110.320;2022-10-31T10:31:08;20.20;99.90
64501;DHT22;50874;24.150;-110.320;2022-10-31T10:36:42;20.20;99.90
64501;DHT22;50874;24.150;-110.320;2022-10-31T10:39:36;20.20;99.90
64501;DHT22;50874;24.150;-110.320;2022-10-31T10:42:01;20.20;99.90
64501;DHT22;50874;24.150;-110.320;2022-10-31T10:44:52;20.20;99.90
64501;DHT22;50874;24.150;-110.320;2022-10-31T10:47:58;20.20;99.90
64501;DHT22;50874;24.150;-110.320;2022-10-31T10:50:37;20.20;99.90
64501;DHT22;50874;24.150;-110.320;2022-10-31T10:53:16;20.10;99.90
64501;DHT22;50874;24.150;-110.320;2022-10-31T10:58:26;20.10;99.90
64501;DHT22;50874;24.150;-110.320;2022-10-31T11:00:55;20.00;99.90
64501;DHT22;50874;24.150;-110.320;2022-10-31T11:03:21;20.10;99.90
64501;DHT22;50874;24.150;-110.320;2022-10-31T11:05:56;20.00;99.90
64501;DHT22;50874;24.150;-110.320;2022-10-31T11:11:02;20.00;99.90
64501;DHT22;50874;24.150;-110.320;2022-10-31T11:13:30;20.00;99.90
64501;DHT22;50874;24.150;-110.320;2022-10-31T11:18:27;19.90;99.90
64501;DHT22;50874;24.150;-110.320;2022-10-31T11:20:57;19.80;99.90
64501;DHT22;50874;24.150;-110.320;2022-10-31T11:23:25;19.80;99.90
64501;DHT22;50874;24.150;-110.320;2022-10-31T11:25:56;19.80;99.90
64501;DHT22;50874;24.150;-110.320;2022-10-31T11:28:23;19.70;99.90
64501;DHT22;50874;24.150;-110.320;2022-10-31T11:30:51;19.70;99.90
64501;DHT22;50874;24.150;-110.320;2022-10-31T11:33:33;19.60;99.90
64501;DHT22;50874;24.150;-110.320;2022-10-31T11:36:03;19.60;99.90
64501;DHT22;50874;24.150;-110.320;2022-10-31T11:38:43;19.60;99.90
64501;DHT22;50874;24.150;-110.320;2022-10-31T11:41:31;19.60;99.90
64501;DHT22;50874;24.150;-110.320;2022-10-31T11:44:09;19.60;99.90
64501;DHT22;50874;24.150;-110.320;2022-10-31T11:46:42;19.60;99.90
64501;DHT22;50874;24.150;-110.320;2022-10-31T11:49:15;19.60;99.90
64501;DHT22;50874;24.150;-110.320;2022-10-31T11:51:46;19.60;99.90
64501;DHT22;50874;24.150;-110.320;2022-10-31T11:54:24;19.60;99.90
64501;DHT22;50874;24.150;-110.320;2022-10-31T11:56:51;19.60;99.90
64501;DHT22;50874;24.150;-110.320;2022-10-31T11:59:30;19.60;99.90
64501;DHT22;50874;24.150;-110.320;2022-10-31T12:01:59;19.60;99.90
64501;DHT22;50874;24.150;-110.320;2022-10-31T12:04:37;19.60;99.90
64501;DHT22;50874;24.150;-110.320;2022-10-31T12:07:06;19.70;99.90
64501;DHT22;50874;24.150;-110.320;2022-10-31T12:09:36;19.60;99.90
64501;DHT22;50874;24.150;-110.320;2022-10-31T12:15:02;19.60;99.90
64501;DHT22;50874;24.150;-110.320;2022-10-31T12:20:03;19.50;99.90
64501;DHT22;50874;24.150;-110.320;2022-10-31T12:28:39;19.20;99.90
64501;DHT22;50874;24.150;-110.320;2022-10-31T12:33:36;19.00;99.90
64501;DHT22;50874;24.150;-110.320;2022-10-31T12:46:54;18.30;99.90
64501;DHT22;50874;24.150;-110.320;2022-10-31T12:52:12;18.10;99.90
64501;DHT22;50874;24.150;-110.320;2022-10-31T12:54:55;18.10;99.90
64501;DHT22;50874;24.150;-110.320;2022-10-31T12:57:38;18.10;99.90
64501;DHT22;50874;24.150;-110.320;2022-10-31T13:00:17;18.10;99.90
64501;DHT22;50874;24.150;-110.320;2022-10-31T13:02:48;18.10;99.90
64501;DHT22;50874;24.150;-110.320;2022-10-31T13:05:21;18.10;99.90
64501;DHT22;50874;24.150;-110.320;2022-10-31T13:07:56;18.10;99.90
64501;DHT22;50874;24.150;-110.320;2022-10-31T13:10:47;18.10;99.90
64501;DHT22;50874;24.150;-110.320;2022-10-31T13:13:26;18.10;99.90
64501;DHT22;50874;24.150;-110.320;2022-10-31T13:16:22;18.10;99.90
64501;DHT22;50874;24.150;-110.320;2022-10-31T13:21:45;18.10;99.90
64501;DHT22;50874;24.150;-110.320;2022-10-31T13:27:07;17.70;99.90
64501;DHT22;50874;24.150;-110.320;2022-10-31T13:29:42;17.50;99.90
64501;DHT22;50874;24.150;-110.320;2022-10-31T13:32:13;17.40;99.90
64501;DHT22;50874;24.150;-110.320;2022-10-31T13:34:59;17.40;99.90
64501;DHT22;50874;24.150;-110.320;2022-10-31T13:37:43;17.40;99.90
64501;DHT22;50874;24.150;-110.320;2022-10-31T13:45:33;17.50;99.90
64501;DHT22;50874;24.150;-110.320;2022-10-31T13:48:31;17.50;99.90
64501;DHT22;50874;24.150;-110.320;2022-10-31T13:51:02;17.50;99.90
64501;DHT22;50874;24.150;-110.320;2022-10-31T13:53:44;17.60;99.90
64501;DHT22;50874;24.150;-110.320;2022-10-31T13:56:16;17.70;99.90
64501;DHT22;50874;24.150;-110.320;2022-10-31T13:58:57;17.80;99.90
64501;DHT22;50874;24.150;-110.320;2022-10-31T14:01:25;17.90;99.90
64501;DHT22;50874;24.150;-110.320;2022-10-31T14:04:07;18.00;99.90
64501;DHT22;50874;24.150;-110.320;2022-10-31T14:06:42;18.00;99.90
64501;DHT22;50874;24.150;-110.320;2022-10-31T14:09:27;18.10;99.90
64501;DHT22;50874;24.150;-110.320;2022-10-31T14:11:55;18.20;99.90
64501;DHT22;50874;24.150;-110.320;2022-10-31T14:14:26;18.30;99.90
64501;DHT22;50874;24.150;-110.320;2022-10-31T14:16:57;18.30;99.90
64501;DHT22;50874;24.150;-110.320;2022-10-31T14:19:24;18.40;99.90
64501;DHT22;50874;24.150;-110.320;2022-10-31T14:21:52;18.40;99.90
64501;DHT22;50874;24.150;-110.320;2022-10-31T14:27:02;18.60;99.90
64501;DHT22;50874;24.150;-110.320;2022-10-31T14:29:30;18.70;99.90
64501;DHT22;50874;24.150;-110.320;2022-10-31T14:32:06;18.80;99.90
64501;DHT22;50874;24.150;-110.320;2022-10-31T14:34:42;18.90;99.90
64501;DHT22;50874;24.150;-110.320;2022-10-31T14:40:05;19.20;99.90
64501;DHT22;50874;24.150;-110.320;2022-10-31T14:42:54;19.30;99.90
64501;DHT22;50874;24.150;-110.320;2022-10-31T14:48:33;19.80;99.90
64501;DHT22;50874;24.150;-110.320;2022-10-31T14:51:03;20.10;99.90
64501;DHT22;50874;24.150;-110.320;2022-10-31T14:53:54;20.30;99.90
64501;DHT22;50874;24.150;-110.320;2022-10-31T14:56:27;20.70;99.90
64501;DHT22;50874;24.150;-110.320;2022-10-31T14:58:57;21.00;99.90
64501;DHT22;50874;24.150;-110.320;2022-10-31T15:01:27;21.30;99.90
64501;DHT22;50874;24.150;-110.320;2022-10-31T15:04:00;21.50;99.90
64501;DHT22;50874;24.150;-110.320;2022-10-31T15:06:47;21.60;99.90
64501;DHT22;50874;24.150;-110.320;2022-10-31T15:09:28;22.00;99.90
64501;DHT22;50874;24.150;-110.320;2022-10-31T15:11:57;22.70;99.90
64501;DHT22;50874;24.150;-110.320;2022-10-31T15:14:29;23.20;99.90
64501;DHT22;50874;24.150;-110.320;2022-10-31T15:16:58;23.80;99.90
64501;DHT22;50874;24.150;-110.320;2022-10-31T15:19:32;24.30;99.90
64501;DHT22;50874;24.150;-110.320;2022-10-31T15:22:03;24.90;99.90
64501;DHT22;50874;24.150;-110.320;2022-10-31T15:24:39;25.30;98.50
64501;DHT22;50874;24.150;-110.320;2022-10-31T15:27:12;25.90;98.20
64501;DHT22;50874;24.150;-110.320;2022-10-31T15:29:55;26.20;97.70
64501;DHT22;50874;24.150;-110.320;2022-10-31T15:32:27;26.60;96.90
64501;DHT22;50874;24.150;-110.320;2022-10-31T15:34:56;27.10;96.30
64501;DHT22;50874;24.150;-110.320;2022-10-31T15:37:27;27.30;95.60
64501;DHT22;50874;24.150;-110.320;2022-10-31T15:40:11;27.60;94.50
64501;DHT22;50874;24.150;-110.320;2022-10-31T15:42:41;27.80;93.80
64501;DHT22;50874;24.150;-110.320;2022-10-31T15:47:56;28.50;93.60
64501;DHT22;50874;24.150;-110.320;2022-10-31T15:50:32;28.80;92.40
64501;DHT22;50874;24.150;-110.320;2022-10-31T15:53:01;28.90;92.70
64501;DHT22;50874;24.150;-110.320;2022-10-31T15:55:33;29.10;92.60
64501;DHT22;50874;24.150;-110.320;2022-10-31T15:58:09;29.30;92.60
64501;DHT22;50874;24.150;-110.320;2022-10-31T16:00:37;29.50;92.40
64501;DHT22;50874;24.150;-110.320;2022-10-31T16:05:58;30.20;91.70
64501;DHT22;50874;24.150;-110.320;2022-10-31T16:13:30;31.00;90.40
64501;DHT22;50874;24.150;-110.320;2022-10-31T16:16:02;31.30;90.10
64501;DHT22;50874;24.150;-110.320;2022-10-31T16:18:34;31.40;90.00
64501;DHT22;50874;24.150;-110.320;2022-10-31T16:21:03;31.10;90.20
64501;DHT22;50874;24.150;-110.320;2022-10-31T16:23:30;31.40;90.20
64501;DHT22;50874;24.150;-110.320;2022-10-31T16:25:57;31.50;89.00
64501;DHT22;50874;24.150;-110.320;2022-10-31T16:28:27;31.80;88.60
64501;DHT22;50874;24.150;-110.320;2022-10-31T16:30:55;32.20;87.50
64501;DHT22;50874;24.150;-110.320;2022-10-31T16:33:29;32.50;86.30
64501;DHT22;50874;24.150;-110.320;2022-10-31T16:35:57;32.90;85.50
64501;DHT22;50874;24.150;-110.320;2022-10-31T16:38:24;33.20;84.60
64501;DHT22;50874;24.150;-110.320;2022-10-31T16:40:51;33.50;83.50
64501;DHT22;50874;24.150;-110.320;2022-10-31T16:43:19;33.70;82.30
64501;DHT22;50874;24.150;-110.320;2022-10-31T16:45:50;34.20;81.80
64501;DHT22;50874;24.150;-110.320;2022-10-31T16:48:21;34.30;80.30
64501;DHT22;50874;24.150;-110.320;2022-10-31T16:50:50;33.90;80.50
64501;DHT22;50874;24.150;-110.320;2022-10-31T16:53:18;34.10;79.90
64501;DHT22;50874;24.150;-110.320;2022-10-31T16:56:05;34.50;79.40
64501;DHT22;50874;24.150;-110.320;2022-10-31T16:58:40;34.60;78.00
64501;DHT22;50874;24.150;-110.320;2022-10-31T17:01:07;34.70;78.20
64501;DHT22;50874;24.150;-110.320;2022-10-31T17:03:33;34.10;79.00
64501;DHT22;50874;24.150;-110.320;2022-10-31T17:06:00;34.10;79.30
64501;DHT22;50874;24.150;-110.320;2022-10-31T17:08:26;34.60;78.50
64501;DHT22;50874;24.150;-110.320;2022-10-31T17:10:55;34.90;77.70